Finest — WCW8374 — position and weather

sailwx.info

Track history (hours):
 
Tides and Currents Weather Stations Pressure Air Temp Water Temp Dewpoint Dewpoint Depression Visibility Wind Speed Wind Dir Waves Ship Positions

Finest

Owner: NEW YORK FAST FERRY SERVICES INC, MAMARONECK, NY. More information available from US FCC via Universal Licensing System and Coast Guard Vessel Documentation Center.

Last reported at 2015-Jan-28 23:34 UTC. Time now 2015-Jan-29 12:22 UTC.
Position N 40°37' W 074°03'.

Length 38 m.

Type: High speed craft. MMSI: 366990590.

Date/timePositionNaut miles runAvg speedWind from/ knotsBaromVisibWave heightAir tempDewpointWater temp
2015-Jan-28 23:34N 40°37' W 074°03'5 4.7
2015-Jan-28 22:30N 40°32' W 074°04'1010.3
2015-Jan-28 21:33N 40°41' W 074°01'5 4.9
2015-Jan-28 20:33N 40°46' W 074°01'0 0.0
2015-Jan-28 19:33N 40°46' W 074°01'0 0.0
2015-Jan-28 18:33N 40°46' W 074°01'0 0.0
2015-Jan-28 17:33N 40°46' W 074°01'0 0.0
2015-Jan-28 16:33N 40°46' W 074°01'0 0.0
2015-Jan-28 15:33N 40°46' W 074°01'0 0.0
2015-Jan-28 14:33N 40°46' W 074°01'8 4.0
2015-Jan-28 12:33N 40°39' W 074°03'2 0.1
2015-Jan-27 20:14N 40°36' W 074°03'912.9
2015-Jan-27 19:34N 40°45' W 074°01'1 1.2
2015-Jan-27 18:33N 40°46' W 074°01'0 0.0
2015-Jan-27 17:33N 40°46' W 074°01'0 0.0
2015-Jan-27 16:33N 40°46' W 074°01'0 0.0
2015-Jan-27 15:33N 40°46' W 074°01'0 0.0
2015-Jan-27 14:33N 40°46' W 074°01'0 0.0
2015-Jan-27 13:33N 40°46' W 074°01'2 1.9
2015-Jan-27 12:33N 40°44' W 074°01'10 0.7
2015-Jan-26 23:30N 40°35' W 074°04'7 6.4
2015-Jan-26 22:29N 40°28' W 074°04'1314.5
2015-Jan-26 21:33N 40°42' W 074°01'4 3.8
2015-Jan-26 20:33N 40°38' W 074°03'12 8.4
2015-Jan-26 19:07N 40°26' W 074°05'1526.8
2015-Jan-26 18:34N 40°41' W 074°01'5 5.4
2015-Jan-26 17:33N 40°46' W 074°01'0 0.0
2015-Jan-26 16:33N 40°46' W 074°01'0 0.4
2015-Jan-26 15:34N 40°46' W 074°01'2017.2
2015-Jan-26 14:23N 40°26' W 074°05'1720.5
2015-Jan-26 13:33N 40°43' W 074°02'1 0.4
2015-Jan-26 11:34N 40°42' W 074°01'  
2015-Jan-23 23:32N 40°36' W 074°03'6 2.9
2015-Jan-23 21:34N 40°41' W 074°01'5 5.1
2015-Jan-23 20:33N 40°46' W 074°01'0 0.0
2015-Jan-23 19:32N 40°46' W 074°01'0 0.0
2015-Jan-23 18:33N 40°46' W 074°01'0 0.0
2015-Jan-23 17:33N 40°46' W 074°01'0 0.0
2015-Jan-23 16:33N 40°46' W 074°01'0 0.0
2015-Jan-23 14:28N 40°46' W 074°01'7 7.2
2015-Jan-23 13:34N 40°40' W 074°02'4 4.0
2015-Jan-23 12:33N 40°36' W 074°03'0 0.0
2015-Jan-22 23:33N 40°36' W 074°03'9 7.9
2015-Jan-22 22:26N 40°27' W 074°04'1516.5
2015-Jan-22 21:33N 40°42' W 074°01'5 0.6
2015-Jan-22 14:29N 40°46' W 074°01'7 7.5
2015-Jan-22 13:33N 40°39' W 074°02'3 3.3
2015-Jan-22 12:33N 40°36' W 074°03'10 0.8
2015-Jan-22 00:07N 40°26' W 074°05'1119.6
2015-Jan-21 23:33N 40°37' W 074°03'4 5.9
2015-Jan-21 22:50N 40°41' W 074°02'231.8
2015-Jan-21 22:46N 40°39' W 074°02'733.7
2015-Jan-21 22:33N 40°32' W 074°04'10 9.7
2015-Jan-21 21:33N 40°41' W 074°01'5 4.8
2015-Jan-21 20:31N 40°46' W 074°01'0 0.0
2015-Jan-21 19:24N 40°46' W 074°01'0 0.0
2015-Jan-21 18:17N 40°46' W 074°01'0 0.0
2015-Jan-21 17:21N 40°46' W 074°01'0 0.0
2015-Jan-21 16:34N 40°46' W 074°01'0 0.0
2015-Jan-21 15:29N 40°46' W 074°01'0 0.0
2015-Jan-21 14:26N 40°46' W 074°01'7 8.0
2015-Jan-21 13:33N 40°39' W 074°02'3 2.8
2015-Jan-21 12:33N 40°36' W 074°03'1110.5
2015-Jan-21 11:33N 40°26' W 074°05'12 1.0
2015-Jan-20 23:33N 40°38' W 074°03'4 2.0
2015-Jan-20 21:33N 40°42' W 074°01'5 4.5
2015-Jan-20 20:32N 40°46' W 074°01'0 0.0
2015-Jan-20 19:28N 40°46' W 074°01'0 0.0
2015-Jan-20 18:29N 40°46' W 074°01'0 0.0
2015-Jan-20 17:27N 40°46' W 074°01'0 0.0
2015-Jan-20 16:33N 40°46' W 074°01'0 0.0
2015-Jan-20 15:33N 40°46' W 074°01'0 0.0
2015-Jan-20 14:25N 40°46' W 074°01'8 9.0
2015-Jan-20 13:33N 40°39' W 074°02'3 2.7
2015-Jan-20 12:33N 40°36' W 074°03'  
Track history (hours):
 
Tides and Currents Weather Stations Pressure Air Temp Water Temp Dewpoint Dewpoint Depression Visibility Wind Speed Wind Dir Waves Ship Positions

Finest

Owner: NEW YORK FAST FERRY SERVICES INC, MAMARONECK, NY. More information available from US FCC via Universal Licensing System and Coast Guard Vessel Documentation Center.

Last reported at 2015-Jan-28 23:34 UTC. Time now 2015-Jan-29 12:22 UTC.
Position N 40°37' W 074°03'.

Length 38 m.

Type: High speed craft. MMSI: 366990590.

Date/timePositionNaut miles runAvg speedWind from/ knotsBaromVisibWave heightAir tempDewpointWater temp
2015-Jan-28 23:34N 40°37' W 074°03'5 4.7
2015-Jan-28 22:30N 40°32' W 074°04'1010.3
2015-Jan-28 21:33N 40°41' W 074°01'5 4.9
2015-Jan-28 20:33N 40°46' W 074°01'0 0.0
2015-Jan-28 19:33N 40°46' W 074°01'0 0.0
2015-Jan-28 18:33N 40°46' W 074°01'0 0.0
2015-Jan-28 17:33N 40°46' W 074°01'0 0.0
2015-Jan-28 16:33N 40°46' W 074°01'0 0.0
2015-Jan-28 15:33N 40°46' W 074°01'0 0.0
2015-Jan-28 14:33N 40°46' W 074°01'8 4.0
2015-Jan-28 12:33N 40°39' W 074°03'2 0.1
2015-Jan-27 20:14N 40°36' W 074°03'912.9
2015-Jan-27 19:34N 40°45' W 074°01'1 1.2
2015-Jan-27 18:33N 40°46' W 074°01'0 0.0
2015-Jan-27 17:33N 40°46' W 074°01'0 0.0
2015-Jan-27 16:33N 40°46' W 074°01'0 0.0
2015-Jan-27 15:33N 40°46' W 074°01'0 0.0
2015-Jan-27 14:33N 40°46' W 074°01'0 0.0
2015-Jan-27 13:33N 40°46' W 074°01'2 1.9
2015-Jan-27 12:33N 40°44' W 074°01'10 0.7
2015-Jan-26 23:30N 40°35' W 074°04'7 6.4
2015-Jan-26 22:29N 40°28' W 074°04'1314.5
2015-Jan-26 21:33N 40°42' W 074°01'4 3.8
2015-Jan-26 20:33N 40°38' W 074°03'12 8.4
2015-Jan-26 19:07N 40°26' W 074°05'1526.8
2015-Jan-26 18:34N 40°41' W 074°01'5 5.4
2015-Jan-26 17:33N 40°46' W 074°01'0 0.0
2015-Jan-26 16:33N 40°46' W 074°01'0 0.4
2015-Jan-26 15:34N 40°46' W 074°01'2017.2
2015-Jan-26 14:23N 40°26' W 074°05'1720.5
2015-Jan-26 13:33N 40°43' W 074°02'1 0.4
2015-Jan-26 11:34N 40°42' W 074°01'  
2015-Jan-23 23:32N 40°36' W 074°03'6 2.9
2015-Jan-23 21:34N 40°41' W 074°01'5 5.1
2015-Jan-23 20:33N 40°46' W 074°01'0 0.0
2015-Jan-23 19:32N 40°46' W 074°01'0 0.0
2015-Jan-23 18:33N 40°46' W 074°01'0 0.0
2015-Jan-23 17:33N 40°46' W 074°01'0 0.0
2015-Jan-23 16:33N 40°46' W 074°01'0 0.0
2015-Jan-23 14:28N 40°46' W 074°01'7 7.2
2015-Jan-23 13:34N 40°40' W 074°02'4 4.0
2015-Jan-23 12:33N 40°36' W 074°03'0 0.0
2015-Jan-22 23:33N 40°36' W 074°03'9 7.9
2015-Jan-22 22:26N 40°27' W 074°04'1516.5
2015-Jan-22 21:33N 40°42' W 074°01'5 0.6
2015-Jan-22 14:29N 40°46' W 074°01'7 7.5
2015-Jan-22 13:33N 40°39' W 074°02'3 3.3
2015-Jan-22 12:33N 40°36' W 074°03'10 0.8
2015-Jan-22 00:07N 40°26' W 074°05'1119.6
2015-Jan-21 23:33N 40°37' W 074°03'4 5.9
2015-Jan-21 22:50N 40°41' W 074°02'231.8
2015-Jan-21 22:46N 40°39' W 074°02'733.7
2015-Jan-21 22:33N 40°32' W 074°04'10 9.7
2015-Jan-21 21:33N 40°41' W 074°01'5 4.8
2015-Jan-21 20:31N 40°46' W 074°01'0 0.0
2015-Jan-21 19:24N 40°46' W 074°01'0 0.0
2015-Jan-21 18:17N 40°46' W 074°01'0 0.0
2015-Jan-21 17:21N 40°46' W 074°01'0 0.0
2015-Jan-21 16:34N 40°46' W 074°01'0 0.0
2015-Jan-21 15:29N 40°46' W 074°01'0 0.0
2015-Jan-21 14:26N 40°46' W 074°01'7 8.0
2015-Jan-21 13:33N 40°39' W 074°02'3 2.8
2015-Jan-21 12:33N 40°36' W 074°03'1110.5
2015-Jan-21 11:33N 40°26' W 074°05'12 1.0
2015-Jan-20 23:33N 40°38' W 074°03'4 2.0
2015-Jan-20 21:33N 40°42' W 074°01'5 4.5
2015-Jan-20 20:32N 40°46' W 074°01'0 0.0
2015-Jan-20 19:28N 40°46' W 074°01'0 0.0
2015-Jan-20 18:29N 40°46' W 074°01'0 0.0
2015-Jan-20 17:27N 40°46' W 074°01'0 0.0
2015-Jan-20 16:33N 40°46' W 074°01'0 0.0
2015-Jan-20 15:33N 40°46' W 074°01'0 0.0
2015-Jan-20 14:25N 40°46' W 074°01'8 9.0
2015-Jan-20 13:33N 40°39' W 074°02'3 2.7
2015-Jan-20 12:33N 40°36' W 074°03'  

Dump ship's entire track history